createdAt,value
2019-01-28T00:01:03.695Z,187.80
2019-01-28T00:03:33.114Z,183.73
2019-01-28T00:06:03.454Z,181.30
2019-01-28T00:08:34.145Z,186.97
2019-01-28T00:11:03.705Z,172.20
2019-01-28T00:13:33.030Z,185.23
2019-01-28T00:16:03.019Z,174.90
2019-01-28T00:18:32.537Z,171.50
2019-01-28T00:21:02.028Z,166.47
2019-01-28T00:23:31.442Z,175.57
2019-01-28T00:26:00.753Z,165.73
2019-01-28T00:28:30.343Z,168.90
2019-01-28T00:31:00.356Z,164.60
2019-01-28T00:33:29.686Z,168.23
2019-01-28T00:35:59.232Z,165.40
2019-01-28T00:38:28.637Z,154.93
2019-01-28T00:40:58.024Z,159.53
2019-01-28T00:43:27.337Z,148.20
2019-01-28T00:45:56.795Z,163.10
2019-01-28T00:48:26.919Z,161.32
2019-01-28T00:50:56.219Z,157.53
2019-01-28T00:53:29.150Z,155.63
2019-01-28T00:55:58.141Z,149.50
2019-01-28T00:58:27.461Z,152.30
2019-01-28T01:00:57.211Z,161.80
2019-01-28T01:03:27.326Z,159.93
2019-01-28T01:05:57.144Z,153.40
2019-01-28T01:08:27.670Z,151.00
2019-01-28T01:10:56.996Z,167.17
2019-01-28T01:13:26.566Z,181.23
2019-01-28T01:15:55.911Z,172.53
2019-01-28T01:18:25.280Z,183.37
2019-01-28T01:20:54.762Z,157.63
2019-01-28T01:23:24.935Z,141.07
2019-01-28T01:25:54.955Z,146.72
2019-01-28T01:28:24.563Z,145.77
2019-01-28T01:30:54.466Z,146.13
2019-01-28T01:33:23.798Z,143.80
2019-01-28T01:35:53.124Z,144.80
2019-01-28T01:38:22.468Z,146.23
2019-01-28T01:40:51.945Z,154.00
2019-01-28T01:43:21.246Z,165.90
2019-01-28T01:45:50.775Z,164.17
2019-01-28T01:48:20.087Z,151.23
2019-01-28T01:50:49.643Z,160.33
2019-01-28T01:53:19.363Z,158.70
2019-01-28T01:55:49.392Z,159.37
2019-01-28T01:58:19.136Z,155.27
2019-01-28T02:00:48.776Z,149.80
2019-01-28T02:03:18.080Z,154.07
2019-01-28T02:05:47.432Z,161.90
2019-01-28T02:08:17.784Z,161.75
2019-01-28T02:10:48.690Z,169.00
2019-01-28T02:13:18.355Z,164.60
2019-01-28T02:15:47.734Z,172.90
2019-01-28T02:18:17.449Z,173.50
2019-01-28T02:20:47.113Z,165.13
2019-01-28T02:23:16.508Z,173.63
2019-01-28T02:25:45.948Z,158.93
2019-01-28T02:28:15.792Z,158.80
2019-01-28T02:30:45.950Z,167.67
2019-01-28T02:33:15.527Z,169.80
2019-01-28T02:35:45.027Z,164.40
2019-01-28T02:38:14.419Z,156.47
2019-01-28T02:40:43.827Z,163.00
2019-01-28T02:43:13.357Z,157.00
2019-01-28T02:45:42.706Z,157.57
2019-01-28T02:48:12.325Z,144.07
2019-01-28T02:50:41.968Z,150.97
2019-01-28T02:53:11.949Z,161.17
2019-01-28T02:55:41.463Z,153.50
2019-01-28T02:58:10.869Z,139.23
2019-01-28T03:00:40.282Z,120.60
2019-01-28T03:03:09.877Z,131.67
2019-01-28T03:05:39.464Z,138.17
2019-01-28T03:08:08.785Z,105.50
2019-01-28T03:10:38.250Z,99.40
2019-01-28T03:13:08.473Z,93.20
2019-01-28T03:15:37.784Z,89.80
2019-01-28T03:18:07.129Z,90.97
2019-01-28T03:20:36.477Z,89.60
2019-01-28T03:23:06.728Z,92.37
2019-01-28T03:25:36.327Z,85.07
2019-01-28T03:28:05.823Z,99.33
2019-01-28T03:30:35.241Z,89.73
2019-01-28T03:33:04.769Z,90.40
2019-01-28T03:35:34.066Z,83.00
2019-01-28T03:38:03.481Z,81.57
2019-01-28T03:40:32.904Z,75.43
2019-01-28T03:43:02.291Z,80.83
2019-01-28T03:45:31.797Z,78.23
2019-01-28T03:48:01.282Z,82.40
2019-01-28T03:50:31.135Z,86.30
2019-01-28T03:53:01.661Z,89.80
2019-01-28T03:55:31.651Z,96.00
2019-01-28T03:58:01.382Z,96.63
2019-01-28T04:00:30.787Z,94.93
2019-01-28T04:03:00.120Z,97.87
2019-01-28T04:05:29.515Z,93.40
2019-01-28T04:07:59.447Z,93.13
2019-01-28T04:10:29.251Z,98.73
2019-01-28T04:13:00.318Z,98.73
2019-01-28T04:15:32.520Z,100.37
2019-01-28T04:18:01.895Z,103.83
2019-01-28T04:20:31.411Z,111.77
2019-01-28T04:23:00.744Z,111.13
2019-01-28T04:25:30.319Z,125.87
2019-01-28T04:28:00.004Z,124.67
2019-01-28T04:30:29.467Z,123.67
2019-01-28T04:32:58.791Z,127.90
2019-01-28T04:35:28.568Z,127.73
2019-01-28T04:37:58.125Z,121.40
2019-01-28T04:40:27.476Z,130.60
2019-01-28T04:42:56.821Z,145.10
2019-01-28T04:45:26.263Z,148.83
2019-01-28T04:47:55.900Z,151.70
2019-01-28T04:50:25.231Z,151.37
2019-01-28T04:52:54.798Z,140.67
2019-01-28T04:55:24.403Z,142.00
2019-01-28T04:57:53.983Z,146.33
2019-01-28T05:00:26.906Z,146.07
2019-01-28T05:02:56.787Z,136.00
2019-01-28T05:05:26.109Z,127.00
2019-01-28T05:07:55.535Z,119.33
2019-01-28T05:10:25.013Z,118.97
2019-01-28T05:12:54.385Z,116.63
2019-01-28T05:15:24.758Z,107.37
2019-01-28T05:17:55.548Z,105.97
2019-01-28T05:20:25.516Z,99.70
2019-01-28T05:22:55.109Z,100.20
2019-01-28T05:25:24.794Z,96.03
2019-01-28T05:27:54.273Z,104.13
2019-01-28T05:30:26.631Z,105.87
2019-01-28T05:32:56.433Z,104.20
2019-01-28T05:35:26.322Z,104.60
2019-01-28T05:37:56.061Z,104.87
2019-01-28T05:40:25.891Z,113.97
2019-01-28T05:42:55.339Z,107.37
2019-01-28T05:45:25.601Z,98.07
2019-01-28T05:47:55.373Z,90.40
2019-01-28T05:50:24.686Z,91.73
2019-01-28T05:52:54.498Z,92.87
2019-01-28T05:55:23.883Z,81.23
2019-01-28T05:57:53.252Z,89.87
2019-01-28T06:00:26.349Z,85.93
2019-01-28T06:02:55.772Z,83.87
2019-01-28T06:05:26.115Z,85.70
2019-01-28T06:07:55.570Z,84.07
2019-01-28T06:10:25.244Z,96.83
2019-01-28T06:12:55.370Z,97.43
2019-01-28T06:15:24.670Z,93.57
2019-01-28T06:17:54.139Z,92.43
2019-01-28T06:20:26.655Z,92.80
2019-01-28T06:22:56.801Z,89.90
2019-01-28T06:25:26.099Z,90.07
2019-01-28T06:27:55.436Z,83.13
2019-01-28T06:30:26.782Z,87.50
2019-01-28T06:32:56.859Z,84.60
2019-01-28T06:35:26.278Z,83.60
2019-01-28T06:37:56.806Z,82.80
2019-01-28T06:40:29.129Z,86.60
2019-01-28T06:42:59.046Z,86.15
2019-01-28T06:45:28.508Z,91.90
2019-01-28T06:47:57.958Z,81.27
2019-01-28T06:50:27.331Z,77.70
2019-01-28T06:52:56.690Z,75.07
2019-01-28T06:55:26.570Z,66.10
2019-01-28T06:57:56.580Z,67.53
2019-01-28T07:00:29.544Z,71.95
2019-01-28T07:02:59.230Z,79.60
2019-01-28T07:05:28.903Z,73.93
2019-01-28T07:07:58.222Z,78.33
2019-01-28T07:10:27.665Z,79.43
2019-01-28T07:12:56.969Z,73.93
2019-01-28T07:15:26.342Z,70.77
2019-01-28T07:17:55.908Z,70.70
2019-01-28T07:20:30.341Z,68.73
2019-01-28T07:23:01.227Z,72.53
2019-01-28T07:25:31.982Z,71.67
2019-01-28T07:28:01.466Z,72.97
2019-01-28T07:30:32.984Z,69.77
2019-01-28T07:33:02.441Z,73.10
2019-01-28T07:35:32.397Z,75.08
2019-01-28T07:38:01.700Z,79.58
2019-01-28T07:40:31.095Z,86.03
2019-01-28T07:43:01.003Z,90.55
2019-01-28T07:45:32.315Z,87.77
2019-01-28T07:48:02.937Z,98.17
2019-01-28T07:50:33.068Z,102.97
2019-01-28T07:53:02.408Z,88.40
2019-01-28T07:55:32.303Z,90.80
2019-01-28T07:58:01.887Z,110.30
2019-01-28T08:00:31.828Z,123.47
2019-01-28T08:03:01.715Z,132.35
2019-01-28T08:05:31.102Z,120.23
2019-01-28T08:08:01.110Z,111.55
2019-01-28T08:10:31.004Z,104.67
2019-01-28T08:13:00.534Z,102.87
2019-01-28T08:15:30.575Z,106.55
2019-01-28T08:18:00.531Z,109.10
2019-01-28T08:20:29.898Z,93.23
2019-01-28T08:23:00.000Z,87.53
2019-01-28T08:25:30.287Z,82.27
2019-01-28T08:27:59.810Z,93.80
2019-01-28T08:30:34.522Z,87.70
2019-01-28T08:33:03.855Z,83.60
2019-01-28T08:35:34.706Z,82.77
2019-01-28T08:38:04.119Z,89.00
2019-01-28T08:40:34.138Z,92.82
2019-01-28T08:43:04.344Z,91.87
2019-01-28T08:45:34.359Z,98.30
2019-01-28T08:48:03.738Z,104.00
2019-01-28T08:50:33.161Z,108.70
2019-01-28T08:53:03.296Z,112.28
2019-01-28T08:55:33.331Z,117.33
2019-01-28T08:58:02.761Z,123.13
2019-01-28T09:00:37.810Z,123.92
2019-01-28T09:03:07.241Z,133.60
2019-01-28T09:05:38.323Z,126.78
2019-01-28T09:08:08.080Z,121.83
2019-01-28T09:10:38.150Z,119.35
2019-01-28T09:13:08.207Z,105.95
2019-01-28T09:15:38.150Z,105.75
2019-01-28T09:18:09.748Z,121.40
2019-01-28T09:20:39.915Z,127.70
2019-01-28T09:23:09.885Z,126.22
2019-01-28T09:25:39.350Z,131.67
2019-01-28T09:28:08.935Z,115.80
2019-01-28T09:30:38.903Z,115.05
2019-01-28T09:33:08.215Z,103.55
2019-01-28T09:35:38.208Z,107.15
2019-01-28T09:38:07.642Z,95.90
2019-01-28T09:40:38.184Z,96.78
2019-01-28T09:43:08.492Z,99.28
2019-01-28T09:45:40.686Z,101.45
2019-01-28T09:48:12.188Z,103.47
2019-01-28T09:50:42.143Z,101.33
2019-01-28T09:53:12.238Z,94.07
2019-01-28T09:55:42.816Z,91.37
2019-01-28T09:58:13.112Z,90.20
2019-01-28T10:00:48.100Z,93.33
2019-01-28T10:03:18.079Z,94.60
2019-01-28T10:05:48.292Z,88.97
2019-01-28T10:08:18.942Z,91.00
2019-01-28T10:10:49.087Z,77.30
2019-01-28T10:13:19.150Z,87.02
2019-01-28T10:15:49.184Z,88.65
2019-01-28T10:18:20.037Z,85.95
2019-01-28T10:20:50.072Z,88.30
2019-01-28T10:23:20.126Z,87.22
2019-01-28T10:25:50.488Z,91.25
2019-01-28T10:28:20.447Z,91.37
2019-01-28T10:30:50.459Z,90.65
2019-01-28T10:33:20.613Z,94.20
2019-01-28T10:35:50.831Z,97.57
2019-01-28T10:38:22.558Z,102.53
2019-01-28T10:40:53.366Z,95.55
2019-01-28T10:43:23.402Z,95.28
2019-01-28T10:45:53.447Z,101.05
2019-01-28T10:48:23.420Z,105.32
2019-01-28T10:50:53.381Z,107.22
2019-01-28T10:53:23.328Z,111.50
2019-01-28T10:55:53.381Z,114.25
2019-01-28T10:58:23.531Z,117.57
2019-01-28T11:00:54.866Z,120.95
2019-01-28T11:03:25.024Z,117.80
2019-01-28T11:05:55.048Z,125.35
2019-01-28T11:08:25.161Z,127.80
2019-01-28T11:10:55.143Z,134.25
2019-01-28T11:13:25.230Z,121.85
2019-01-28T11:15:55.286Z,121.10
2019-01-28T11:18:26.231Z,128.32
2019-01-28T11:20:56.332Z,124.58
2019-01-28T11:23:26.697Z,125.12
2019-01-28T11:25:56.774Z,127.12
2019-01-28T11:28:27.928Z,134.25
2019-01-28T11:30:58.623Z,131.80
2019-01-28T11:33:28.932Z,123.75
2019-01-28T11:36:05.175Z,125.20
2019-01-28T11:38:30.679Z,120.92
2019-01-28T11:41:00.410Z,116.75
2019-01-28T11:43:30.747Z,132.52
2019-01-28T11:46:01.387Z,124.20
2019-01-28T11:48:32.766Z,127.02
2019-01-28T11:51:04.121Z,129.55
2019-01-28T11:53:33.680Z,123.83
2019-01-28T11:56:03.655Z,130.35
2019-01-28T11:58:33.867Z,130.10
2019-01-28T12:01:07.327Z,128.50
2019-01-28T12:03:36.986Z,116.88
2019-01-28T12:06:07.003Z,134.78
2019-01-28T12:08:37.103Z,133.80
2019-01-28T12:11:07.223Z,136.68
2019-01-28T12:13:37.399Z,129.65
2019-01-28T12:16:07.476Z,131.30
2019-01-28T12:18:38.393Z,140.52
2019-01-28T12:21:08.288Z,129.27
2019-01-28T12:23:38.648Z,135.18
2019-01-28T12:26:12.162Z,134.10
2019-01-28T12:28:42.378Z,129.65
2019-01-28T12:31:28.009Z,139.85
2019-01-28T12:33:57.922Z,136.43
2019-01-28T12:36:27.812Z,130.03
2019-01-28T12:38:57.697Z,138.68
2019-01-28T12:41:27.679Z,140.18
2019-01-28T12:43:59.990Z,144.07
2019-01-28T12:46:29.935Z,143.65
2019-01-28T12:48:59.965Z,131.57
2019-01-28T12:51:29.863Z,135.70
2019-01-28T12:53:59.819Z,136.88
2019-01-28T12:56:29.835Z,137.45
2019-01-28T12:58:59.926Z,143.85
2019-01-28T13:01:30.039Z,114.70
2019-01-28T13:03:59.982Z,120.65
2019-01-28T13:06:30.020Z,115.95
2019-01-28T13:08:59.921Z,115.00
2019-01-28T13:11:30.044Z,94.97
2019-01-28T13:14:00.251Z,93.72
2019-01-28T13:16:30.447Z,95.72
2019-01-28T13:19:01.291Z,93.20
2019-01-28T13:21:31.266Z,103.05
2019-01-28T13:24:02.402Z,105.10
2019-01-28T13:26:32.292Z,106.63
2019-01-28T13:29:02.249Z,98.87
2019-01-28T13:31:32.941Z,112.37
2019-01-28T13:34:03.303Z,112.40
2019-01-28T13:36:33.180Z,106.52
2019-01-28T13:39:04.788Z,112.75
2019-01-28T13:41:35.627Z,111.15
2019-01-28T13:44:05.259Z,112.03
2019-01-28T13:46:35.088Z,103.90
2019-01-28T13:49:05.434Z,110.25
2019-01-28T13:51:35.511Z,108.03
2019-01-28T13:54:05.373Z,109.57
2019-01-28T13:56:35.216Z,116.08
2019-01-28T13:59:05.091Z,118.35
2019-01-28T14:01:35.042Z,122.95
2019-01-28T14:04:05.050Z,115.55
2019-01-28T14:06:35.098Z,121.05
2019-01-28T14:09:07.151Z,117.55
2019-01-28T14:11:37.735Z,117.35
2019-01-28T14:14:08.192Z,121.22
2019-01-28T14:16:38.281Z,120.05
2019-01-28T14:19:08.635Z,111.32
2019-01-28T14:21:38.533Z,113.05
2019-01-28T14:24:08.534Z,120.45
2019-01-28T14:26:38.687Z,115.60
2019-01-28T14:29:08.160Z,110.53
2019-01-28T14:31:37.998Z,115.00
2019-01-28T14:34:07.947Z,124.00
2019-01-28T14:36:37.966Z,123.42
2019-01-28T14:39:13.819Z,128.30
2019-01-28T14:41:41.320Z,122.15
2019-01-28T14:44:11.355Z,129.65
2019-01-28T14:46:41.341Z,136.70
2019-01-28T14:49:11.315Z,148.70
2019-01-28T14:51:41.350Z,166.45
2019-01-28T14:54:11.318Z,160.82
2019-01-28T14:56:41.215Z,146.30
2019-01-28T14:59:11.471Z,153.75
2019-01-28T15:01:41.723Z,134.47
2019-01-28T15:04:11.588Z,131.65
2019-01-28T15:06:41.523Z,136.40
2019-01-28T15:09:11.848Z,147.37
2019-01-28T15:11:41.914Z,141.90
2019-01-28T15:14:11.866Z,139.32
2019-01-28T15:16:41.797Z,154.00
2019-01-28T15:19:13.765Z,155.22
2019-01-28T15:21:44.089Z,155.82
2019-01-28T15:24:14.042Z,171.35
2019-01-28T15:26:44.031Z,197.00
2019-01-28T15:29:14.010Z,180.97
2019-01-28T15:31:43.982Z,182.35
2019-01-28T15:34:13.970Z,172.87
2019-01-28T15:36:43.933Z,168.30
2019-01-28T15:39:14.317Z,160.63
2019-01-28T15:41:44.386Z,150.35
2019-01-28T15:44:13.899Z,159.10
2019-01-28T15:46:43.882Z,158.32
2019-01-28T15:49:13.482Z,162.40
2019-01-28T15:51:43.506Z,164.07
2019-01-28T15:54:13.531Z,164.28
2019-01-28T15:56:43.495Z,158.93
2019-01-28T15:59:13.499Z,155.40
2019-01-28T16:01:43.533Z,148.25
2019-01-28T16:04:12.888Z,152.83
2019-01-28T16:06:42.820Z,158.25
2019-01-28T16:09:12.734Z,160.20
2019-01-28T16:11:42.844Z,159.07
2019-01-28T16:14:12.928Z,142.62
2019-01-28T16:16:42.935Z,148.65
2019-01-28T16:19:13.428Z,149.62
2019-01-28T16:21:43.599Z,156.80
2019-01-28T16:24:13.532Z,156.43
2019-01-28T16:26:43.592Z,148.82
2019-01-28T16:29:13.675Z,150.00
2019-01-28T16:31:44.058Z,129.03
2019-01-28T16:34:14.020Z,141.70
2019-01-28T16:36:43.996Z,132.78
2019-01-28T16:39:14.286Z,136.32
2019-01-28T16:41:44.450Z,147.50
2019-01-28T16:44:14.091Z,140.93
2019-01-28T16:46:43.398Z,138.67
2019-01-28T16:49:14.015Z,139.83
2019-01-28T16:51:45.025Z,157.37
2019-01-28T16:54:15.123Z,172.93
2019-01-28T16:56:45.136Z,173.35
2019-01-28T16:59:14.492Z,188.73
2019-01-28T17:01:44.577Z,202.05
2019-01-28T17:04:15.565Z,184.25
2019-01-28T17:06:45.648Z,181.20
2019-01-28T17:09:15.618Z,178.60
2019-01-28T17:11:45.566Z,177.68
2019-01-28T17:14:15.636Z,182.62
2019-01-28T17:16:45.627Z,185.65
2019-01-28T17:19:14.982Z,181.52
2019-01-28T17:21:46.867Z,190.80
2019-01-28T17:24:16.299Z,195.77
2019-01-28T17:26:46.371Z,194.85
2019-01-28T17:29:16.263Z,195.12
2019-01-28T17:31:45.633Z,170.87
2019-01-28T17:34:15.011Z,169.07
2019-01-28T17:36:44.318Z,182.40
2019-01-28T17:39:13.675Z,185.57
2019-01-28T17:41:43.199Z,192.57
2019-01-28T17:44:13.083Z,178.20
2019-01-28T17:46:42.617Z,183.90
2019-01-28T17:49:12.051Z,193.67
2019-01-28T17:51:41.408Z,190.20
2019-01-28T17:54:10.826Z,210.10
2019-01-28T17:56:40.768Z,229.55
2019-01-28T17:59:10.797Z,227.20
2019-01-28T18:01:40.639Z,231.60
2019-01-28T18:04:10.603Z,233.43
2019-01-28T18:06:39.986Z,227.50
2019-01-28T18:09:10.006Z,220.23
2019-01-28T18:11:40.020Z,224.50
2019-01-28T18:14:09.599Z,215.23
2019-01-28T18:16:39.268Z,208.77
2019-01-28T18:19:08.803Z,221.30
2019-01-28T18:21:38.484Z,218.30
2019-01-28T18:24:09.366Z,205.57
2019-01-28T18:26:39.460Z,207.37
2019-01-28T18:29:08.878Z,205.20
2019-01-28T18:31:38.496Z,202.37
2019-01-28T18:34:07.823Z,206.77
2019-01-28T18:36:37.590Z,212.27
2019-01-28T18:39:09.799Z,207.77
2019-01-28T18:41:39.333Z,203.03
2019-01-28T18:44:09.864Z,190.30
2019-01-28T18:46:39.571Z,188.70
2019-01-28T18:49:09.258Z,192.50
2019-01-28T18:51:39.459Z,183.03
2019-01-28T18:54:08.810Z,175.13
2019-01-28T18:56:38.301Z,180.73
2019-01-28T18:59:08.203Z,174.20
2019-01-28T19:01:37.608Z,155.70
2019-01-28T19:04:06.902Z,174.67
2019-01-28T19:06:38.443Z,162.85
2019-01-28T19:09:09.503Z,154.40
2019-01-28T19:11:40.622Z,156.07
2019-01-28T19:14:20.872Z,156.93
2019-01-28T19:16:51.806Z,150.70
2019-01-28T19:19:22.928Z,149.70
2019-01-28T19:21:53.945Z,151.57
2019-01-28T19:24:24.146Z,146.73
2019-01-28T19:27:09.617Z,136.87
2019-01-28T19:29:39.096Z,135.13
2019-01-28T19:32:08.549Z,116.70
2019-01-28T19:34:37.954Z,135.73
2019-01-28T19:37:07.337Z,140.43
2019-01-28T19:39:36.843Z,139.50
2019-01-28T19:42:06.479Z,113.73
2019-01-28T19:44:35.846Z,132.37
2019-01-28T19:47:05.341Z,142.10
2019-01-28T19:49:34.901Z,130.80
2019-01-28T19:52:04.118Z,139.27
2019-01-28T19:54:33.447Z,135.80
2019-01-28T19:57:02.542Z,130.67
2019-01-28T19:59:31.600Z,121.27
2019-01-28T20:02:00.807Z,116.30
2019-01-28T20:04:31.314Z,132.43
2019-01-28T20:07:00.976Z,134.93
2019-01-28T20:09:30.114Z,145.07
2019-01-28T20:11:59.532Z,128.53
2019-01-28T20:14:28.954Z,120.47
2019-01-28T20:16:58.751Z,136.27
2019-01-28T20:19:29.068Z,143.03
2019-01-28T20:21:58.539Z,100.17
2019-01-28T20:24:28.660Z,113.13
2019-01-28T20:26:58.268Z,133.43
2019-01-28T20:29:29.340Z,134.00
2019-01-28T20:31:58.642Z,107.40
2019-01-28T20:34:27.705Z,126.17
2019-01-28T20:36:57.134Z,109.67
2019-01-28T20:39:27.318Z,132.75
2019-01-28T20:41:56.787Z,136.93
2019-01-28T20:44:36.296Z,130.57
2019-01-28T20:47:07.296Z,135.80
2019-01-28T20:49:36.785Z,127.37
2019-01-28T20:52:06.395Z,133.10
2019-01-28T20:54:35.960Z,124.87
2019-01-28T20:57:13.036Z,119.43
2019-01-28T20:59:56.876Z,120.13
2019-01-28T21:02:43.874Z,118.77
2019-01-28T21:05:20.479Z,96.45
2019-01-28T21:07:50.166Z,100.63
2019-01-28T21:10:23.177Z,107.05
2019-01-28T21:12:54.029Z,90.45
2019-01-28T21:15:23.917Z,92.80
2019-01-28T21:17:53.380Z,99.10
2019-01-28T21:20:23.893Z,107.53
2019-01-28T21:22:53.589Z,105.10
2019-01-28T21:25:27.028Z,91.50
2019-01-28T21:27:56.452Z,106.70
2019-01-28T21:30:33.229Z,92.23
2019-01-28T21:33:02.695Z,96.70
2019-01-28T21:35:39.779Z,97.57
2019-01-28T21:38:10.926Z,94.60
2019-01-28T21:40:40.351Z,91.07
2019-01-28T21:43:11.001Z,94.97
2019-01-28T21:45:40.441Z,97.40
2019-01-28T21:48:09.835Z,94.20
2019-01-28T21:50:39.686Z,96.53
2019-01-28T21:53:09.270Z,94.77
2019-01-28T21:55:38.663Z,99.93
2019-01-28T21:58:07.948Z,95.90
2019-01-28T22:00:37.935Z,100.10
2019-01-28T22:03:07.967Z,96.35
2019-01-28T22:05:37.897Z,95.10
2019-01-28T22:08:07.564Z,94.67
2019-01-28T22:10:36.936Z,88.03
2019-01-28T22:13:06.848Z,98.53
2019-01-28T22:15:36.358Z,93.10
2019-01-28T22:18:06.318Z,82.08
2019-01-28T22:20:35.758Z,92.17
2019-01-28T22:23:05.201Z,103.57
2019-01-28T22:25:34.955Z,96.83
2019-01-28T22:28:04.424Z,100.23
2019-01-28T22:30:34.852Z,97.33
2019-01-28T22:33:04.580Z,90.90
2019-01-28T22:35:33.964Z,79.40
2019-01-28T22:38:03.452Z,92.60
2019-01-28T22:40:33.543Z,74.72
2019-01-28T22:43:03.764Z,83.42
2019-01-28T22:45:33.371Z,83.93
2019-01-28T22:48:02.778Z,78.87
2019-01-28T22:50:32.840Z,82.95
2019-01-28T22:53:02.321Z,80.93
2019-01-28T22:55:31.734Z,74.37
2019-01-28T22:58:01.153Z,88.07
2019-01-28T23:00:47.399Z,81.73
2019-01-28T23:03:19.750Z,84.95
2019-01-28T23:05:49.886Z,80.67
2019-01-28T23:08:19.888Z,83.22
2019-01-28T23:10:49.435Z,80.87
2019-01-28T23:13:18.747Z,75.97
2019-01-28T23:15:49.803Z,82.82
2019-01-28T23:18:19.122Z,89.30
2019-01-28T23:20:48.655Z,86.50
2019-01-28T23:23:18.572Z,86.53
2019-01-28T23:25:48.132Z,85.23
2019-01-28T23:28:17.814Z,89.40
2019-01-28T23:30:48.234Z,94.62
2019-01-28T23:33:17.601Z,92.47
2019-01-28T23:35:47.044Z,86.20
2019-01-28T23:38:16.994Z,90.00
2019-01-28T23:40:46.614Z,93.30
2019-01-28T23:43:15.927Z,84.47
2019-01-28T23:45:46.125Z,76.93
2019-01-28T23:48:16.140Z,82.17
2019-01-28T23:50:45.675Z,86.10
2019-01-28T23:53:15.187Z,85.20
2019-01-28T23:55:44.655Z,80.00
2019-01-28T23:58:14.484Z,91.80
